Echo, Alabama
Current Conditions -  °F | °C
As of 3:53 AM on Thursday 23 Oct 2014 (Local Time) from KDHN Reporting Station
Clear Clear  
Wind Chill: 42°   Ceiling: Unl
Heat Index: 46°   Visibility: 10mi
Dew Point: 43°   Wind: 7mph
Humidity: 89%   Direction: 30°NNE
Pressure: 30.09"   Gusts: NA
Location:  31.4499°N, 85.3271°W
Report Text: KDHN 230853Z AUTO 03006KT 10SM CLR 08/06 A3009 RMK AO2 SLP188 T00780061 55003
Loading
Personal Weather Stations






























Interactive Weather Map
Tropical Storm Tracking
New forecast layout! Learn more

10-Day Weather Forecast

Advertisements
Track Severe Weather on mobile